Time;durP1;ratioP1;P1;durP2;ratioP2;P2;SDS_P1;SDS_P2;PMS_P1;PMS_P2;Temp;Humidity;BMP_temperature;BMP_pressure;BME280_temperature;BME280_humidity;BME280_pressure;Samples;Min_cycle;Max_cycle;Signal;HPM_P1;HPM_P2
2023/07/05 00:00:39;;;;;;;;;;;;;;;12.69;67.40;101209.27;107396;1262;60741;-83
2023/07/05 00:03:26;;;;;;;;;;;;;;;12.66;67.42;101208.14;107551;1257;74804;-83
2023/07/05 00:05:53;;;;;;;;;;;;;;;12.64;67.41;101207.38;107339;1262;124935;-83
2023/07/05 00:08:22;;;;;;;;;;;;;;;12.61;67.43;101206.80;107600;1262;72580;-83
2023/07/05 00:10:50;;;;;;;;;;;;;;;12.59;67.51;101209.58;107805;1262;124542;-80
2023/07/05 00:13:16;;;;;;;;;;;;;;;12.56;67.54;101204.39;107776;1253;60210;-84
2023/07/05 00:15:45;;;;;;;;;;;;;;;12.54;67.54;101204.52;107884;1254;125450;-84
2023/07/05 00:18:13;;;;;;;;;;;;;;;12.52;67.72;101203.23;107805;1256;65353;-83
2023/07/05 00:20:47;;;;;;;;;;;;;;;12.50;67.67;101207.58;107929;1253;73132;-84
2023/07/05 00:23:14;;;;;;;;;;;;;;;12.48;67.75;101212.45;108078;1256;125552;-80
2023/07/05 00:25:41;;;;;;;;;;;;;;;12.45;67.76;101213.09;108409;1256;60032;-80
2023/07/05 00:28:08;;;;;;;;;;;;;;;12.43;67.84;101217.09;108034;1253;125439;-80
2023/07/05 00:30:35;;;;;;;;;;;;;;;12.41;67.81;101218.27;108010;1257;66557;-80
2023/07/05 00:33:02;;;;;;;;;;;;;;;12.39;68.03;101218.42;107972;1254;72744;-80
2023/07/05 00:35:28;;;;;;;;;;;;;;;12.38;67.97;101212.91;107557;1257;123798;-80
2023/07/05 00:37:55;;;;;;;;;;;;;;;12.34;68.02;101213.17;107771;1255;60728;-80
2023/07/05 00:40:22;;;;;;;;;;;;;;;12.30;68.08;101216.05;107560;1257;124379;-80
2023/07/05 00:42:49;;;;;;;;;;;;;;;12.25;68.16;101218.77;107696;1255;67086;-80
2023/07/05 00:45:19;;;;;;;;;;;;;;;12.22;68.25;101215.51;108168;1254;71712;-80
2023/07/05 00:47:46;;;;;;;;;;;;;;;12.18;68.29;101217.68;108097;1254;124403;-80
2023/07/05 00:50:20;;;;;;;;;;;;;;;12.14;68.38;101217.40;107820;1255;59320;-80
2023/07/05 00:52:47;;;;;;;;;;;;;;;12.08;68.37;101220.42;107796;1253;124178;-80
2023/07/05 00:55:14;;;;;;;;;;;;;;;12.04;68.46;101223.66;107778;1259;67177;-80
2023/07/05 00:57:41;;;;;;;;;;;;;;;11.98;68.54;101220.87;107611;1253;124545;-80
2023/07/05 01:00:17;;;;;;;;;;;;;;;11.94;68.61;101225.32;107773;1258;58968;-80
2023/07/05 01:02:45;;;;;;;;;;;;;;;11.89;68.68;101219.36;107774;1254;61369;-80
2023/07/05 01:05:12;;;;;;;;;;;;;;;11.84;68.77;101221.17;107702;1259;124347;-80
2023/07/05 01:07:39;;;;;;;;;;;;;;;11.80;68.83;101220.87;107913;1254;65743;-80
2023/07/05 01:10:09;;;;;;;;;;;;;;;11.75;68.91;101218.27;107649;1255;124275;-80
2023/07/05 01:12:36;;;;;;;;;;;;;;;11.71;69.08;101215.36;107779;1260;59123;-80
2023/07/05 01:15:10;;;;;;;;;;;;;;;11.66;68.99;101218.39;108284;1256;60494;-80
2023/07/05 01:17:43;;;;;;;;;;;;;;;11.61;69.04;101220.00;108144;1260;124025;-80
2023/07/05 01:20:17;;;;;;;;;;;;;;;11.56;69.21;101218.98;107871;1255;66996;-80
2023/07/05 01:22:44;;;;;;;;;;;;;;;11.52;69.25;101217.27;107459;1254;124663;-80
2023/07/05 01:25:35;;;;;;;;;;;;;;;11.48;69.43;101219.63;107859;1254;58712;-80
2023/07/05 01:28:05;;;;;;;;;;;;;;;11.44;69.56;101215.14;107781;1257;124097;-83
2023/07/05 01:30:41;;;;;;;;;;;;;;;11.41;69.60;101219.77;107762;1254;73861;-84
2023/07/05 01:33:09;;;;;;;;;;;;;;;11.38;69.84;101215.66;107609;1254;66922;-84
2023/07/05 01:35:37;;;;;;;;;;;;;;;11.35;69.84;101215.73;107582;1254;124284;-84
2023/07/05 01:38:04;;;;;;;;;;;;;;;11.32;69.94;101213.00;107507;1254;60241;-84
2023/07/05 01:40:32;;;;;;;;;;;;;;;11.29;70.00;101214.35;107353;1254;123919;-84
2023/07/05 01:43:03;;;;;;;;;;;;;;;11.26;70.05;101212.14;107559;1254;72724;-83
2023/07/05 01:45:33;;;;;;;;;;;;;;;11.22;70.11;101208.33;107644;1258;64787;-83
2023/07/05 01:48:10;;;;;;;;;;;;;;;11.20;70.27;101210.90;109024;1254;123562;-84
2023/07/05 01:50:42;;;;;;;;;;;;;;;11.17;70.38;101211.17;108385;1254;60294;-83
2023/07/05 01:53:12;;;;;;;;;;;;;;;11.15;70.41;101211.46;107394;1255;123667;-83
2023/07/05 01:55:41;;;;;;;;;;;;;;;11.12;70.57;101212.41;107561;1258;73008;-83
2023/07/05 01:58:13;;;;;;;;;;;;;;;11.10;70.53;101210.80;107567;1254;125319;-82
2023/07/05 02:00:40;;;;;;;;;;;;;;;11.08;70.55;101214.60;107703;1254;72553;-82
2023/07/05 02:03:09;;;;;;;;;;;;;;;11.07;70.70;101213.84;107754;1255;61023;-83
2023/07/05 02:05:45;;;;;;;;;;;;;;;11.07;70.66;101216.65;107469;1254;124558;-83
2023/07/05 02:08:13;;;;;;;;;;;;;;;11.07;70.76;101217.21;107517;1254;71806;-83
2023/07/05 02:10:40;;;;;;;;;;;;;;;11.08;70.86;101214.77;107596;1257;124575;-82
2023/07/05 02:13:11;;;;;;;;;;;;;;;11.11;70.90;101217.48;107752;1254;71060;-83
2023/07/05 02:15:38;;;;;;;;;;;;;;;11.13;70.87;101224.58;107813;1254;124800;-82
2023/07/05 02:18:05;;;;;;;;;;;;;;;11.16;70.94;101223.09;107442;1254;60366;-82
2023/07/05 02:20:35;;;;;;;;;;;;;;;11.18;70.95;101217.70;107575;1254;72280;-82
2023/07/05 02:23:02;;;;;;;;;;;;;;;11.19;70.85;101216.68;107773;1257;125260;-82
2023/07/05 02:25:31;;;;;;;;;;;;;;;11.20;70.94;101215.29;107851;1255;72713;-82
2023/07/05 02:28:07;;;;;;;;;;;;;;;11.21;70.87;101212.69;109032;1254;125340;-82
2023/07/05 02:30:34;;;;;;;;;;;;;;;11.21;70.81;101217.09;109262;1254;60624;-82
2023/07/05 02:33:01;;;;;;;;;;;;;;;11.22;70.75;101221.49;108964;1254;71786;-83
2023/07/05 02:35:28;;;;;;;;;;;;;;;11.24;70.81;101221.38;107628;1254;123558;-83
2023/07/05 02:37:55;;;;;;;;;;;;;;;11.24;70.81;101222.11;108321;1254;71243;-83
2023/07/05 02:40:23;;;;;;;;;;;;;;;11.24;70.81;101221.74;108259;1260;124839;-83
2023/07/05 02:42:50;;;;;;;;;;;;;;;11.26;70.87;101222.13;107880;1254;61978;-83
2023/07/05 02:45:17;;;;;;;;;;;;;;;11.28;70.93;101225.55;107932;1254;73687;-84
2023/07/05 02:47:43;;;;;;;;;;;;;;;11.32;70.79;101223.20;107932;1257;125208;-83
2023/07/05 02:50:14;;;;;;;;;;;;;;;11.36;70.81;101224.20;108084;1254;71958;-83
2023/07/05 02:52:41;;;;;;;;;;;;;;;11.39;70.74;101227.10;107476;1254;125053;-79
2023/07/05 02:55:08;;;;;;;;;;;;;;;11.42;70.76;101224.02;107407;1254;60504;-83
2023/07/05 02:57:35;;;;;;;;;;;;;;;11.47;70.77;101222.94;107603;1254;73928;-80
2023/07/05 03:00:06;;;;;;;;;;;;;;;11.56;70.85;101226.34;107603;1254;66793;-84
2023/07/05 03:02:33;;;;;;;;;;;;;;;11.66;70.79;101228.05;107517;1254;73018;-84
2023/07/05 03:05:09;;;;;;;;;;;;;;;11.74;70.68;101235.14;107369;1254;125770;-82
2023/07/05 03:07:36;;;;;;;;;;;;;;;11.81;70.63;101230.77;107590;1254;60533;-82
2023/07/05 03:10:03;;;;;;;;;;;;;;;11.88;70.51;101233.92;107405;1254;124174;-82
2023/07/05 03:12:31;;;;;;;;;;;;;;;11.95;70.53;101233.09;107491;1254;67694;-83
2023/07/05 03:14:58;;;;;;;;;;;;;;;12.04;70.46;101235.63;107697;1254;73345;-83
2023/07/05 03:17:27;;;;;;;;;;;;;;;12.15;70.40;101235.38;107578;1254;123876;-83
2023/07/05 03:19:57;;;;;;;;;;;;;;;12.31;70.42;101232.63;107694;1254;60399;-83
2023/07/05 03:22:24;;;;;;;;;;;;;;;12.46;70.13;101233.38;107591;1254;124943;-83
2023/07/05 03:24:52;;;;;;;;;;;;;;;12.60;69.95;101228.26;107639;1254;67078;-84
2023/07/05 03:27:20;;;;;;;;;;;;;;;12.76;69.82;101231.61;107530;1254;72702;-84
2023/07/05 03:29:47;;;;;;;;;;;;;;;12.90;69.74;101231.25;108003;1254;124828;-84
2023/07/05 03:32:14;;;;;;;;;;;;;;;13.23;70.07;101229.70;108068;1254;60106;-84
2023/07/05 03:34:43;;;;;;;;;;;;;;;13.78;70.17;101222.21;107589;1254;124707;-84
2023/07/05 03:37:10;;;;;;;;;;;;;;;14.46;69.58;101221.67;107659;1254;67718;-83
2023/07/05 03:39:38;;;;;;;;;;;;;;;14.70;68.06;101218.91;107683;1254;124708;-83
2023/07/05 03:42:07;;;;;;;;;;;;;;;14.71;67.35;101212.39;107747;1254;60136;-84
2023/07/05 03:44:33;;;;;;;;;;;;;;;14.77;67.06;101211.42;107790;1254;60331;-84
2023/07/05 03:47:01;;;;;;;;;;;;;;;14.88;66.83;101210.34;107676;1254;123921;-84
2023/07/05 03:49:28;;;;;;;;;;;;;;;15.03;66.52;101208.61;107776;1254;65893;-84
2023/07/05 03:51:55;;;;;;;;;;;;;;;15.21;66.29;101207.09;107651;1254;123964;-83
2023/07/05 03:54:25;;;;;;;;;;;;;;;15.57;66.22;101207.89;107542;1254;60295;-84
2023/07/05 03:56:52;;;;;;;;;;;;;;;16.40;66.45;101206.80;107421;1258;60314;-84
2023/07/05 03:59:20;;;;;;;;;;;;;;;17.59;66.13;101205.40;107172;1254;124268;-83
2023/07/05 04:01:48;;;;;;;;;;;;;;;18.97;65.27;101206.59;107309;1254;67362;-83
2023/07/05 04:04:19;;;;;;;;;;;;;;;20.27;63.70;101205.98;107339;1254;124544;-83
2023/07/05 04:06:47;;;;;;;;;;;;;;;21.10;61.24;101205.42;107422;1254;58784;-83
2023/07/05 04:09:15;;;;;;;;;;;;;;;21.72;59.87;101208.96;107631;1257;60456;-83
2023/07/05 04:11:44;;;;;;;;;;;;;;;22.45;58.71;101211.27;107681;1254;124068;-85
2023/07/05 04:14:11;;;;;;;;;;;;;;;23.37;57.50;101212.98;107722;1254;66807;-84
2023/07/05 04:16:38;;;;;;;;;;;;;;;24.27;56.11;101210.45;107471;1255;123989;-83
2023/07/05 04:19:05;;;;;;;;;;;;;;;25.14;54.71;101203.36;107659;1254;59624;-83
2023/07/05 04:21:32;;;;;;;;;;;;;;;25.94;53.20;101200.29;107934;1254;59480;-83
2023/07/05 04:24:00;;;;;;;;;;;;;;;26.66;51.60;101205.66;107645;1254;123864;-83
2023/07/05 04:26:28;;;;;;;;;;;;;;;27.28;49.98;101210.48;107782;1254;66889;-83
2023/07/05 04:28:56;;;;;;;;;;;;;;;27.91;48.62;101209.71;107679;1254;124156;-83
2023/07/05 04:31:26;;;;;;;;;;;;;;;28.61;47.75;101203.59;108582;1256;59154;-84
2023/07/05 04:34:01;;;;;;;;;;;;;;;29.35;46.72;101200.81;107679;1254;124073;-84
2023/07/05 04:36:29;;;;;;;;;;;;;;;30.13;45.59;101198.94;107839;1254;65458;-84
2023/07/05 04:38:56;;;;;;;;;;;;;;;30.85;44.25;101199.11;107757;1254;58931;-84
2023/07/05 04:41:23;;;;;;;;;;;;;;;31.12;42.80;101197.15;107389;1254;124018;-83
2023/07/05 04:43:52;;;;;;;;;;;;;;;31.32;41.98;101195.38;107600;1253;60209;-84
2023/07/05 04:46:19;;;;;;;;;;;;;;;31.62;41.29;101194.63;107533;1254;124317;-83
2023/07/05 04:48:48;;;;;;;;;;;;;;;31.94;40.43;101189.17;107772;1254;63637;-83
2023/07/05 04:51:15;;;;;;;;;;;;;;;32.34;39.64;101186.35;107816;1254;66125;-79
2023/07/05 04:53:42;;;;;;;;;;;;;;;32.75;38.93;101186.05;107747;1254;124445;-80
2023/07/05 04:56:10;;;;;;;;;;;;;;;33.11;38.13;101184.75;108174;1253;60323;-80
2023/07/05 04:58:37;;;;;;;;;;;;;;;33.40;37.36;101187.83;108136;1254;124570;-80
2023/07/05 05:01:07;;;;;;;;;;;;;;;33.70;36.82;101184.08;107940;1254;63964;-80
2023/07/05 05:03:34;;;;;;;;;;;;;;;34.00;36.26;101188.17;109046;1254;59522;-80
2023/07/05 05:06:01;;;;;;;;;;;;;;;34.17;35.48;101188.30;108992;1254;124259;-80
2023/07/05 05:08:28;;;;;;;;;;;;;;;34.32;35.02;101187.83;109232;1257;58288;-80
2023/07/05 05:10:56;;;;;;;;;;;;;;;34.47;34.66;101187.40;108285;1256;123977;-81
2023/07/05 05:13:23;;;;;;;;;;;;;;;34.67;34.27;101189.98;107748;1254;63816;-80
2023/07/05 05:15:51;;;;;;;;;;;;;;;34.85;33.79;101191.52;107772;1253;124206;-80
2023/07/05 05:18:18;;;;;;;;;;;;;;;34.95;33.35;101199.36;108058;1254;62775;-80
2023/07/05 05:20:45;;;;;;;;;;;;;;;35.23;33.06;101203.55;108022;1254;59221;-79
2023/07/05 05:23:14;;;;;;;;;;;;;;;35.43;32.48;101203.95;108057;1254;124058;-81
2023/07/05 05:25:44;;;;;;;;;;;;;;;35.35;32.20;101197.29;108186;1253;65068;-81
2023/07/05 05:28:11;;;;;;;;;;;;;;;35.25;31.74;101197.05;108233;1254;124084;-80
2023/07/05 05:30:38;;;;;;;;;;;;;;;35.08;31.57;101197.90;108118;1254;63997;-79
2023/07/05 05:33:05;;;;;;;;;;;;;;;34.85;31.19;101200.97;107964;1254;59123;-81
2023/07/05 05:35:34;;;;;;;;;;;;;;;34.64;31.16;101209.33;107752;1258;124396;-81
2023/07/05 05:38:02;;;;;;;;;;;;;;;34.56;31.07;101215.70;107894;1254;64967;-81
2023/07/05 05:40:30;;;;;;;;;;;;;;;34.44;30.82;101224.41;107822;1254;124137;-81
2023/07/05 05:42:57;;;;;;;;;;;;;;;34.19;30.83;101221.12;107891;1254;64129;-80
2023/07/05 05:45:24;;;;;;;;;;;;;;;33.60;30.57;101217.82;107824;1253;60526;-80
2023/07/05 05:47:51;;;;;;;;;;;;;;;32.25;30.72;101217.52;108054;1254;124667;-81
2023/07/05 05:50:22;;;;;;;;;;;;;;;30.90;31.38;101218.80;107992;1254;63949;-81
2023/07/05 05:52:49;;;;;;;;;;;;;;;29.75;32.14;101218.68;107844;1254;124554;-80
2023/07/05 05:55:17;;;;;;;;;;;;;;;28.71;32.90;101215.96;108067;1254;71060;-80
2023/07/05 05:57:46;;;;;;;;;;;;;;;27.82;33.56;101218.70;107991;1254;124293;-80
2023/07/05 06:00:13;;;;;;;;;;;;;;;27.10;34.47;101211.48;108145;1254;59943;-81
2023/07/05 06:02:40;;;;;;;;;;;;;;;26.56;35.08;101215.16;107717;1254;74188;-80
2023/07/05 06:05:08;;;;;;;;;;;;;;;26.14;35.71;101215.29;107677;1254;124278;-78
2023/07/05 06:07:35;;;;;;;;;;;;;;;25.75;36.24;101216.86;107814;1253;72553;-79
2023/07/05 06:10:02;;;;;;;;;;;;;;;25.40;36.63;101222.02;108920;1254;124079;-80
2023/07/05 06:12:29;;;;;;;;;;;;;;;25.09;37.10;101217.66;107650;1257;60192;-80
2023/07/05 06:14:56;;;;;;;;;;;;;;;24.83;37.41;101221.60;107684;1254;73581;-79
2023/07/05 06:17:23;;;;;;;;;;;;;;;24.58;37.67;101221.89;107761;1259;124444;-79
2023/07/05 06:19:50;;;;;;;;;;;;;;;24.30;38.30;101217.55;108185;1254;71388;-79
2023/07/05 06:22:17;;;;;;;;;;;;;;;24.17;38.73;101217.86;107947;1255;124765;-79
2023/07/05 06:24:44;;;;;;;;;;;;;;;24.03;38.94;101214.63;108246;1253;59755;-79
2023/07/05 06:27:11;;;;;;;;;;;;;;;23.88;39.31;101214.61;108006;1254;73573;-80
2023/07/05 06:29:41;;;;;;;;;;;;;;;23.73;39.34;101212.05;107801;1257;124409;-78
2023/07/05 06:32:08;;;;;;;;;;;;;;;23.49;39.57;101210.59;107900;1254;71499;-80
2023/07/05 06:34:35;;;;;;;;;;;;;;;23.29;39.88;101210.64;107760;1254;124157;-80
2023/07/05 06:37:02;;;;;;;;;;;;;;;23.12;40.21;101206.89;107992;1256;59315;-80
2023/07/05 06:39:29;;;;;;;;;;;;;;;23.04;40.61;101209.71;107918;1254;72536;-80
2023/07/05 06:41:56;;;;;;;;;;;;;;;23.00;40.86;101211.01;108074;1254;123920;-80
2023/07/05 06:44:23;;;;;;;;;;;;;;;22.97;40.96;101210.54;108247;1254;72793;-80
2023/07/05 06:46:53;;;;;;;;;;;;;;;22.96;41.28;101210.02;107923;1254;124375;-80
2023/07/05 06:49:20;;;;;;;;;;;;;;;22.96;41.44;101214.66;107792;1254;58976;-80
2023/07/05 06:51:48;;;;;;;;;;;;;;;22.99;41.38;101214.98;108933;1254;124100;-80
2023/07/05 06:54:15;;;;;;;;;;;;;;;23.02;41.45;101213.84;109137;1253;66803;-80
2023/07/05 06:56:42;;;;;;;;;;;;;;;23.02;41.36;101213.65;109141;1253;72023;-80
2023/07/05 06:59:09;;;;;;;;;;;;;;;23.00;41.52;101214.06;108981;1254;124296;-80
2023/07/05 07:01:38;;;;;;;;;;;;;;;22.99;41.40;101220.14;109090;1254;61332;-80
2023/07/05 07:04:05;;;;;;;;;;;;;;;23.00;41.32;101218.89;108881;1254;123980;-80
2023/07/05 07:06:36;;;;;;;;;;;;;;;23.00;41.45;101222.64;108984;1254;65471;-81
2023/07/05 07:09:04;;;;;;;;;;;;;;;23.08;41.38;101213.92;109071;1254;71606;-81
2023/07/05 07:11:31;;;;;;;;;;;;;;;23.12;41.27;101211.55;108787;1254;124403;-80
2023/07/05 07:13:58;;;;;;;;;;;;;;;23.15;41.46;101213.26;109065;1254;59989;-81
2023/07/05 07:16:25;;;;;;;;;;;;;;;23.17;41.35;101207.31;109032;1254;124584;-82
2023/07/05 07:18:55;;;;;;;;;;;;;;;23.15;41.10;101204.13;109177;1253;67310;-82
2023/07/05 07:21:22;;;;;;;;;;;;;;;23.15;41.05;101203.23;109122;1253;72654;-81
2023/07/05 07:23:49;;;;;;;;;;;;;;;23.17;41.02;101204.98;108914;1254;124162;-81
2023/07/05 07:26:20;;;;;;;;;;;;;;;23.22;40.93;101206.66;109073;1254;60167;-82
2023/07/05 07:28:48;;;;;;;;;;;;;;;23.28;40.62;101209.95;109010;1254;124992;-82
2023/07/05 07:31:16;;;;;;;;;;;;;;;23.29;40.47;101207.43;108959;1254;66907;-81
2023/07/05 07:33:44;;;;;;;;;;;;;;;23.35;40.55;101202.11;109025;1254;71194;-81
2023/07/05 07:36:12;;;;;;;;;;;;;;;23.42;40.39;101199.98;109057;1253;58290;-80
2023/07/05 07:38:40;;;;;;;;;;;;;;;23.51;40.48;101196.75;109196;1254;58503;-81
2023/07/05 07:41:20;;;;;;;;;;;;;;;23.59;40.22;101201.95;109111;1253;124197;-81
2023/07/05 07:43:50;;;;;;;;;;;;;;;23.63;39.96;101201.14;109209;1253;67115;-81
2023/07/05 07:46:18;;;;;;;;;;;;;;;23.66;39.86;101199.83;108991;1254;124386;-82
2023/07/05 07:48:46;;;;;;;;;;;;;;;23.66;39.63;101201.80;109138;1254;58443;-81
2023/07/05 07:51:13;;;;;;;;;;;;;;;23.66;39.79;101199.84;109014;1254;58831;-81
2023/07/05 07:53:40;;;;;;;;;;;;;;;23.65;39.72;101202.00;108878;1253;124405;-81
2023/07/05 07:56:13;;;;;;;;;;;;;;;23.67;39.42;101201.24;109102;1254;65136;-81
2023/07/05 07:58:45;;;;;;;;;;;;;;;23.70;38.97;101202.25;108402;1254;124157;-87
2023/07/05 08:01:15;;;;;;;;;;;;;;;23.74;38.77;101203.23;107700;1256;61321;-87
2023/07/05 08:03:44;;;;;;;;;;;;;;;23.81;38.63;101201.86;107863;1254;59231;-85
2023/07/05 08:06:11;;;;;;;;;;;;;;;23.88;38.41;101203.13;108216;1254;73671;-81
2023/07/05 08:08:51;;;;;;;;;;;;;;;24.03;38.34;101203.13;108163;1254;67050;-81
2023/07/05 08:11:17;;;;;;;;;;;;;;;24.19;38.12;101196.84;109064;1253;123881;-81
2023/07/05 08:13:48;;;;;;;;;;;;;;;24.15;37.92;101199.79;109198;1254;58352;-82
2023/07/05 08:16:15;;;;;;;;;;;;;;;24.12;38.21;101198.98;109003;1254;124183;-80
2023/07/05 08:18:44;;;;;;;;;;;;;;;24.16;38.29;101195.31;109152;1254;73712;-80
2023/07/05 08:21:12;;;;;;;;;;;;;;;24.21;38.00;101191.95;109158;1253;66975;-80
2023/07/05 08:23:40;;;;;;;;;;;;;;;24.24;37.73;101189.89;109057;1253;123867;-81
2023/07/05 08:26:07;;;;;;;;;;;;;;;24.32;37.90;101186.84;108905;1254;58596;-80
2023/07/05 08:28:34;;;;;;;;;;;;;;;24.46;37.83;101187.21;109060;1254;124363;-80
2023/07/05 08:31:01;;;;;;;;;;;;;;;24.55;37.43;101188.98;108983;1254;73907;-80
2023/07/05 08:33:29;;;;;;;;;;;;;;;24.57;37.25;101188.02;108901;1254;67278;-80
2023/07/05 08:36:08;;;;;;;;;;;;;;;24.57;37.17;101187.48;108690;1253;124498;-80
2023/07/05 08:38:39;;;;;;;;;;;;;;;24.56;37.05;101180.52;108364;1253;58353;-78
2023/07/05 08:41:25;;;;;;;;;;;;;;;24.56;36.96;101176.21;107907;1254;124563;-78
2023/07/05 08:44:03;;;;;;;;;;;;;;;24.60;37.10;101171.77;108091;1254;73868;-81
2023/07/05 08:46:30;;;;;;;;;;;;;;;24.66;37.11;101169.30;107995;1256;124838;-80
2023/07/05 08:48:59;;;;;;;;;;;;;;;24.68;36.66;101169.79;108993;1253;72509;-81
2023/07/05 08:51:27;;;;;;;;;;;;;;;24.68;36.60;101170.33;109019;1254;58302;-80
2023/07/05 08:53:56;;;;;;;;;;;;;;;24.65;36.40;101168.06;108983;1254;123938;-80
2023/07/05 08:56:33;;;;;;;;;;;;;;;24.65;36.70;101164.84;109063;1253;74469;-80
2023/07/05 08:59:09;;;;;;;;;;;;;;;24.70;36.58;101162.57;108954;1256;123899;-81
2023/07/05 09:01:39;;;;;;;;;;;;;;;24.75;36.49;101169.95;108188;1253;72638;-81
2023/07/05 09:04:12;;;;;;;;;;;;;;;24.75;36.19;101170.30;107428;1254;124716;-80
2023/07/05 09:06:42;;;;;;;;;;;;;;;24.70;36.19;101163.46;108220;1254;58504;-80
2023/07/05 09:09:18;;;;;;;;;;;;;;;24.72;36.26;101166.09;108347;1254;72052;-81
2023/07/05 09:11:55;;;;;;;;;;;;;;;24.71;36.13;101159.49;108021;1254;124505;-79
2023/07/05 09:14:22;;;;;;;;;;;;;;;24.68;36.38;101158.13;108001;1257;71321;-81
2023/07/05 09:16:52;;;;;;;;;;;;;;;24.77;36.28;101160.40;107783;1254;124686;-82
2023/07/05 09:19:35;;;;;;;;;;;;;;;24.83;36.16;101160.04;107716;1254;60294;-82
2023/07/05 09:22:04;;;;;;;;;;;;;;;24.92;35.91;101160.17;108048;1254;124672;-82
2023/07/05 09:24:36;;;;;;;;;;;;;;;25.03;36.08;101150.86;108200;1253;66746;-81
2023/07/05 09:27:08;;;;;;;;;;;;;;;25.22;36.14;101147.10;107797;1254;71150;-79
2023/07/05 09:29:40;;;;;;;;;;;;;;;25.50;36.08;101150.42;107697;1254;124435;-81
2023/07/05 09:32:10;;;;;;;;;;;;;;;25.70;35.52;101145.48;107922;1254;59659;-82
2023/07/05 09:34:55;;;;;;;;;;;;;;;25.92;35.61;101143.71;107879;1254;124408;-80
2023/07/05 09:37:23;;;;;;;;;;;;;;;26.24;35.56;101141.21;107870;1253;65428;-80
2023/07/05 09:39:58;;;;;;;;;;;;;;;26.36;34.85;101138.66;107894;1254;124749;-82
2023/07/05 09:42:32;;;;;;;;;;;;;;;26.35;34.78;101132.40;107606;1254;60035;-80
2023/07/05 09:45:00;;;;;;;;;;;;;;;26.20;34.43;101130.38;107727;1253;59660;-80
2023/07/05 09:47:27;;;;;;;;;;;;;;;26.10;34.52;101128.37;107698;1254;123959;-81
2023/07/05 09:49:54;;;;;;;;;;;;;;;26.10;34.66;101126.77;107818;1254;65683;-80
2023/07/05 09:52:22;;;;;;;;;;;;;;;26.10;34.59;101123.52;108015;1253;124347;-81
2023/07/05 09:54:50;;;;;;;;;;;;;;;26.08;34.76;101126.29;107918;1254;59852;-80
2023/07/05 09:57:25;;;;;;;;;;;;;;;26.04;34.69;101118.16;107687;1254;60330;-80
2023/07/05 09:59:52;;;;;;;;;;;;;;;25.93;34.65;101112.02;107539;1254;124522;-81
2023/07/05 10:02:22;;;;;;;;;;;;;;;25.86;34.91;101116.57;107762;1253;67068;-81
2023/07/05 10:04:53;;;;;;;;;;;;;;;25.84;35.25;101116.99;107749;1254;124574;-81
2023/07/05 10:07:24;;;;;;;;;;;;;;;25.87;35.31;101118.14;107752;1253;60161;-81
2023/07/05 10:09:54;;;;;;;;;;;;;;;25.86;35.22;101110.80;108027;1254;124693;-81
2023/07/05 10:12:26;;;;;;;;;;;;;;;25.82;35.37;101106.79;108041;1255;72384;-83
2023/07/05 10:14:53;;;;;;;;;;;;;;;25.84;35.67;101102.61;108215;1254;64548;-79
2023/07/05 10:17:20;;;;;;;;;;;;;;;25.89;35.86;101098.48;107830;1254;124213;-80
2023/07/05 10:19:51;;;;;;;;;;;;;;;25.94;36.04;101097.61;107698;1254;61455;-81
2023/07/05 10:22:26;;;;;;;;;;;;;;;25.99;35.81;101099.08;107697;1253;124470;-81
2023/07/05 10:24:59;;;;;;;;;;;;;;;25.95;35.38;101098.30;107796;1254;73816;-80
2023/07/05 10:27:33;;;;;;;;;;;;;;;25.96;35.56;101091.82;107770;1253;66914;-81
2023/07/05 10:30:08;;;;;;;;;;;;;;;26.03;35.87;101091.23;107853;1254;124323;-81
2023/07/05 10:32:58;;;;;;;;;;;;;;;26.06;35.65;101088.40;107930;1254;60200;-81
2023/07/05 10:35:25;;;;;;;;;;;;;;;26.06;35.81;101084.44;108075;1254;124508;-81
2023/07/05 10:37:53;;;;;;;;;;;;;;;26.09;36.00;101084.19;107982;1254;72413;-81
2023/07/05 10:40:21;;;;;;;;;;;;;;;26.11;36.17;101079.23;107740;1254;124609;-82
2023/07/05 10:42:55;;;;;;;;;;;;;;;26.10;36.28;101074.59;107927;1254;71436;-81
2023/07/05 10:45:22;;;;;;;;;;;;;;;26.07;36.30;101068.21;108081;1253;59173;-81
2023/07/05 10:47:52;;;;;;;;;;;;;;;26.03;36.56;101065.86;107905;1254;124006;-80
2023/07/05 10:50:23;;;;;;;;;;;;;;;26.02;36.69;101066.45;107698;1254;322889;-82
2023/07/05 10:52:52;;;;;;;;;;;;;;;25.98;36.49;101061.52;107856;1254;124614;-80
2023/07/05 10:55:23;;;;;;;;;;;;;;;25.91;36.38;101056.36;107979;1254;72462;-80
2023/07/05 10:58:06;;;;;;;;;;;;;;;25.78;36.47;101047.60;107880;1254;124163;-80
2023/07/05 11:00:39;;;;;;;;;;;;;;;25.68;36.59;101052.25;108431;1254;60733;-80
2023/07/05 11:03:11;;;;;;;;;;;;;;;25.66;36.87;101046.92;108353;1254;72564;-80
2023/07/05 11:05:41;;;;;;;;;;;;;;;25.68;36.91;101046.52;108245;1254;124619;-79
2023/07/05 11:08:24;;;;;;;;;;;;;;;25.70;37.12;101038.69;108377;1254;71807;-80
2023/07/05 11:10:51;;;;;;;;;;;;;;;25.71;36.93;101035.44;108063;1254;125016;-79
2023/07/05 11:13:18;;;;;;;;;;;;;;;25.70;37.20;101041.03;108263;1254;58780;-79
2023/07/05 11:15:45;;;;;;;;;;;;;;;25.73;37.18;101034.48;108360;1254;124678;-79
2023/07/05 11:18:17;;;;;;;;;;;;;;;25.76;37.22;101037.95;108279;1254;65879;-78
2023/07/05 11:20:46;;;;;;;;;;;;;;;25.74;36.87;101027.41;109078;1256;71446;-79
2023/07/05 11:23:28;;;;;;;;;;;;;;;25.74;37.16;101031.90;108957;1254;124686;-80
2023/07/05 11:25:56;;;;;;;;;;;;;;;25.80;37.15;101024.00;109104;1254;58800;-79
2023/07/05 11:28:33;;;;;;;;;;;;;;;25.84;37.04;101018.99;108957;1254;124799;-80
2023/07/05 11:31:00;;;;;;;;;;;;;;;25.87;37.22;101015.69;109050;1254;65729;-79
2023/07/05 11:33:27;;;;;;;;;;;;;;;25.94;37.17;101007.19;109047;1254;72862;-79
2023/07/05 11:35:54;;;;;;;;;;;;;;;25.98;37.10;101011.88;108477;1254;124524;-80
2023/07/05 11:38:37;;;;;;;;;;;;;;;26.01;37.12;100998.84;107791;1254;60151;-80
2023/07/05 11:41:05;;;;;;;;;;;;;;;26.07;37.06;100997.54;107879;1256;124616;-79
2023/07/05 11:43:40;;;;;;;;;;;;;;;26.12;36.91;100995.40;107660;1256;67066;-80
2023/07/05 11:46:35;;;;;;;;;;;;;;;26.17;37.06;100988.35;107485;1255;124147;-79
2023/07/05 11:49:23;;;;;;;;;;;;;;;26.25;37.08;100981.81;107700;1257;60470;-79
2023/07/05 11:52:11;;;;;;;;;;;;;;;26.29;36.78;100982.38;107788;1256;124668;-78
2023/07/05 11:54:42;;;;;;;;;;;;;;;26.31;36.52;100976.38;107591;1256;73724;-80
2023/07/05 11:57:11;;;;;;;;;;;;;;;26.26;36.56;100977.44;107708;1254;65767;-80
2023/07/05 12:00:05;;;;;;;;;;;;;;;26.28;36.60;100971.45;107646;1254;124098;-80
2023/07/05 12:02:35;;;;;;;;;;;;;;;26.29;36.70;100965.10;107844;1256;58780;-81
2023/07/05 12:05:04;;;;;;;;;;;;;;;26.35;36.64;100958.59;107731;1254;124390;-81
2023/07/05 12:07:32;;;;;;;;;;;;;;;26.41;36.60;100955.64;107850;1260;73197;-81
2023/07/05 12:09:59;;;;;;;;;;;;;;;26.52;36.69;100953.81;107907;1254;124164;-81
2023/07/05 12:12:26;;;;;;;;;;;;;;;26.62;36.37;100955.09;107870;1255;72684;-80
2023/07/05 12:14:53;;;;;;;;;;;;;;;26.70;36.38;100952.95;107757;1254;60486;-81
2023/07/05 12:17:21;;;;;;;;;;;;;;;26.79;36.42;100945.41;107831;1256;124671;-80
2023/07/05 12:19:48;;;;;;;;;;;;;;;26.86;36.19;100939.03;107897;1254;73005;-81
2023/07/05 12:22:21;;;;;;;;;;;;;;;26.94;36.09;100940.14;107548;1254;124425;-80
2023/07/05 12:24:48;;;;;;;;;;;;;;;27.01;35.96;100929.59;107707;1256;71382;-81
2023/07/05 12:27:26;;;;;;;;;;;;;;;27.06;35.73;100925.79;107725;1254;59606;-82
2023/07/05 12:29:53;;;;;;;;;;;;;;;27.12;35.63;100918.49;107778;1254;124324;-81
2023/07/05 12:32:21;;;;;;;;;;;;;;;27.19;35.61;100912.08;107823;1261;73987;-81
2023/07/05 12:35:03;;;;;;;;;;;;;;;27.25;35.27;100910.96;107659;1259;124691;-80